Terminal Aerodrome Forecast
Issued by NWS

Home | Current Version | Previous Version | Text Only | Print | Product List | Glossary On
Versions: 1 2 3 4 5 6 7 8 9 10 11 12 13 14 15 16 17 18 19 20 21 22 23 24
000
FTUS44 KEWX 280937 AAA
TAFSSF
TAF AMD
KSSF 280937Z 2810/2906 13005KT P6SM OVC007
     FM281500 14010KT P6SM OVC025
     FM281900 14015KT P6SM BKN040
     FM290500 14005KT P6SM OVC015=

USA.gov is the U.S. government's official web portal to all federal, state and local government web resources and services.